createdAt,value
2022-07-26T00:02:47.929Z,2.54
2022-07-26T00:07:51.743Z,2.62
2022-07-26T00:12:58.283Z,2.55
2022-07-26T00:18:04.511Z,2.94
2022-07-26T00:23:10.927Z,2.91
2022-07-26T00:28:17.203Z,2.69
2022-07-26T00:33:23.541Z,2.70
2022-07-26T00:38:29.742Z,2.58
2022-07-26T00:43:36.070Z,3.11
2022-07-26T00:48:42.327Z,3.05
2022-07-26T00:54:52.069Z,3.21
2022-07-26T00:59:58.180Z,2.93
2022-07-26T01:05:04.407Z,2.80
2022-07-26T01:10:10.567Z,3.30
2022-07-26T01:15:16.801Z,3.19
2022-07-26T01:20:22.955Z,2.65
2022-07-26T01:25:29.418Z,2.95
2022-07-26T01:30:35.538Z,2.80
2022-07-26T01:35:41.937Z,3.01
2022-07-26T01:40:48.216Z,3.01
2022-07-26T01:45:54.653Z,3.51
2022-07-26T01:51:00.713Z,2.81
2022-07-26T01:56:06.928Z,2.82
2022-07-26T02:01:13.108Z,3.38
2022-07-26T02:06:19.427Z,3.15
2022-07-26T02:11:25.629Z,3.13
2022-07-26T02:16:32.024Z,3.59
2022-07-26T02:21:38.193Z,3.20
2022-07-26T02:26:44.425Z,3.02
2022-07-26T02:31:50.632Z,3.21
2022-07-26T02:36:56.952Z,3.21
2022-07-26T02:42:03.062Z,2.74
2022-07-26T02:47:09.349Z,2.97
2022-07-26T02:52:14.987Z,3.02
2022-07-26T02:57:21.186Z,3.88
2022-07-26T03:02:27.326Z,4.06
2022-07-26T03:07:33.645Z,3.02
2022-07-26T03:12:39.862Z,3.72
2022-07-26T03:17:46.202Z,3.08
2022-07-26T03:22:52.457Z,3.48
2022-07-26T03:27:58.725Z,3.23
2022-07-26T03:33:04.861Z,3.45
2022-07-26T03:38:11.102Z,3.38
2022-07-26T03:43:21.187Z,3.08
2022-07-26T03:48:22.987Z,3.46
2022-07-26T03:53:29.213Z,3.55
2022-07-26T03:58:35.501Z,3.39
2022-07-26T04:03:45.748Z,3.31
2022-07-26T04:08:47.273Z,3.67
2022-07-26T04:13:54.406Z,3.49
2022-07-26T04:19:00.659Z,3.56
2022-07-26T04:24:07.028Z,3.87
2022-07-26T04:29:12.582Z,4.14
2022-07-26T04:34:18.771Z,4.19
2022-07-26T04:39:24.940Z,3.76
2022-07-26T04:44:31.068Z,3.07
2022-07-26T04:49:37.225Z,3.51
2022-07-26T04:54:43.358Z,2.82
2022-07-26T05:00:03.329Z,2.76
2022-07-26T05:04:55.312Z,2.77
2022-07-26T05:10:01.586Z,2.93
2022-07-26T05:15:13.651Z,2.72
2022-07-26T05:20:13.557Z,2.42
2022-07-26T05:25:19.809Z,2.52
2022-07-26T05:30:26.115Z,2.32
2022-07-26T05:35:32.206Z,2.42
2022-07-26T05:40:38.458Z,3.03
2022-07-26T05:45:44.723Z,2.40
2022-07-26T05:50:51.037Z,2.10
2022-07-26T05:55:57.149Z,2.18
2022-07-26T06:01:03.452Z,1.89
2022-07-26T06:06:09.626Z,1.97
2022-07-26T06:11:16.220Z,1.57
2022-07-26T06:16:22.353Z,1.75
2022-07-26T06:21:28.601Z,1.40
2022-07-26T06:26:35.072Z,1.43
2022-07-26T06:31:41.492Z,1.40
2022-07-26T06:36:47.475Z,1.17
2022-07-26T06:41:53.674Z,1.40
2022-07-26T06:46:59.807Z,1.16
2022-07-26T06:52:05.981Z,1.40
2022-07-26T06:57:12.118Z,1.19
2022-07-26T07:02:18.862Z,1.26
2022-07-26T07:07:24.873Z,1.00
2022-07-26T07:12:30.614Z,1.12
2022-07-26T07:17:36.710Z,1.18
2022-07-26T07:22:42.969Z,1.16
2022-07-26T07:27:49.107Z,1.16
2022-07-26T07:32:55.397Z,1.36
2022-07-26T07:38:01.084Z,1.44
2022-07-26T07:43:06.763Z,1.27
2022-07-26T07:48:13.037Z,1.51
2022-07-26T07:53:19.837Z,1.37
2022-07-26T07:58:25.025Z,1.62
2022-07-26T08:03:38.747Z,1.42
2022-07-26T08:08:36.499Z,1.24
2022-07-26T08:13:47.595Z,1.26
2022-07-26T08:18:57.285Z,1.57
2022-07-26T08:23:54.349Z,1.34
2022-07-26T08:29:00.662Z,1.26
2022-07-26T08:34:06.760Z,1.32
2022-07-26T08:39:12.879Z,1.31
2022-07-26T08:44:19.182Z,1.12
2022-07-26T08:49:25.422Z,1.50
2022-07-26T08:54:31.547Z,1.42
2022-07-26T08:59:37.762Z,1.26
2022-07-26T09:04:44.990Z,1.43
2022-07-26T09:09:50.157Z,1.32
2022-07-26T09:14:56.459Z,1.18
2022-07-26T09:20:02.678Z,1.42
2022-07-26T09:25:08.998Z,1.25
2022-07-26T09:30:15.236Z,1.22
2022-07-26T09:35:44.587Z,1.19
2022-07-26T09:40:27.166Z,1.22
2022-07-26T09:45:33.409Z,1.21
2022-07-26T09:50:39.528Z,1.28
2022-07-26T09:55:45.780Z,1.74
2022-07-26T10:00:51.914Z,1.33
2022-07-26T10:05:58.184Z,1.11
2022-07-26T10:11:03.853Z,1.34
2022-07-26T10:16:10.110Z,1.23
2022-07-26T10:21:15.902Z,1.44
2022-07-26T10:26:23.005Z,1.35
2022-07-26T10:31:28.802Z,1.11
2022-07-26T10:36:34.931Z,1.53
2022-07-26T10:41:41.050Z,1.51
2022-07-26T10:46:47.461Z,1.44
2022-07-26T10:51:53.617Z,1.48
2022-07-26T10:56:59.822Z,1.41
2022-07-26T11:02:06.793Z,1.87
2022-07-26T11:07:13.084Z,2.09
2022-07-26T11:12:19.306Z,2.19
2022-07-26T11:17:25.582Z,2.23
2022-07-26T11:22:34.721Z,2.49
2022-07-26T11:27:41.261Z,2.72
2022-07-26T11:32:47.394Z,2.03
2022-07-26T11:37:53.639Z,2.46
2022-07-26T11:42:59.875Z,2.36
2022-07-26T11:48:06.222Z,2.44
2022-07-26T11:53:12.374Z,2.18
2022-07-26T11:58:18.647Z,1.94
2022-07-26T12:03:24.763Z,2.31
2022-07-26T12:08:31.034Z,2.89
2022-07-26T12:13:39.769Z,2.04
2022-07-26T12:18:42.980Z,2.65
2022-07-26T12:23:49.335Z,2.06
2022-07-26T12:28:54.930Z,2.07
2022-07-26T12:34:01.078Z,2.10
2022-07-26T12:39:07.458Z,2.17
2022-07-26T12:44:13.916Z,2.18
2022-07-26T12:49:19.402Z,1.83
2022-07-26T12:54:29.504Z,1.80
2022-07-26T12:59:31.886Z,1.59
2022-07-26T13:04:38.103Z,1.72
2022-07-26T13:09:44.491Z,1.67
2022-07-26T13:14:50.692Z,2.09
2022-07-26T13:19:56.986Z,1.45
2022-07-26T13:25:06.229Z,1.43
2022-07-26T13:30:08.953Z,1.85
2022-07-26T13:35:15.165Z,1.86
2022-07-26T13:40:21.681Z,1.46
2022-07-26T13:45:29.411Z,1.39
2022-07-26T13:50:33.821Z,1.50
2022-07-26T13:55:39.907Z,1.54
2022-07-26T14:00:46.231Z,1.33
2022-07-26T14:05:52.418Z,1.26
2022-07-26T14:10:59.023Z,1.47
2022-07-26T14:16:05.276Z,1.49
2022-07-26T14:21:11.514Z,1.31
2022-07-26T14:26:17.650Z,1.11
2022-07-26T14:31:23.976Z,1.28
2022-07-26T14:36:30.024Z,1.32
2022-07-26T14:41:36.213Z,1.49
2022-07-26T14:46:42.418Z,1.13
2022-07-26T14:51:48.900Z,1.24
2022-07-26T14:56:54.941Z,1.41
2022-07-26T15:02:05.679Z,1.20
2022-07-26T15:07:07.344Z,1.21
2022-07-26T15:12:13.667Z,1.50
2022-07-26T15:17:20.184Z,1.35
2022-07-26T15:22:26.862Z,1.78
2022-07-26T15:27:32.951Z,1.86
2022-07-26T15:32:39.703Z,1.71
2022-07-26T15:37:45.843Z,1.37
2022-07-26T15:42:52.940Z,1.49
2022-07-26T15:48:11.014Z,2.02
2022-07-26T15:53:04.782Z,1.97
2022-07-26T15:58:10.980Z,1.68
2022-07-26T16:03:17.579Z,1.45
2022-07-26T16:08:23.805Z,1.49
2022-07-26T16:13:30.429Z,1.46
2022-07-26T16:18:37.441Z,1.43
2022-07-26T16:23:43.345Z,1.66
2022-07-26T16:28:49.568Z,1.53
2022-07-26T16:33:55.756Z,1.75
2022-07-26T16:39:01.888Z,1.53
2022-07-26T16:44:08.188Z,1.64
2022-07-26T16:49:15.088Z,1.52
2022-07-26T16:54:20.472Z,1.45
2022-07-26T16:59:26.667Z,1.45
2022-07-26T17:04:33.055Z,1.18
2022-07-26T17:09:39.222Z,1.41
2022-07-26T17:14:45.629Z,1.21
2022-07-26T17:19:51.866Z,1.34
2022-07-26T17:24:59.231Z,1.20
2022-07-26T17:30:07.122Z,1.25
2022-07-26T17:35:11.083Z,1.39
2022-07-26T17:40:17.190Z,1.06
2022-07-26T17:45:23.516Z,1.16
2022-07-26T17:50:38.008Z,1.13
2022-07-26T17:55:35.614Z,1.17
2022-07-26T18:00:42.065Z,1.25
2022-07-26T18:05:48.546Z,1.14
2022-07-26T18:10:54.715Z,1.07
2022-07-26T18:16:05.788Z,1.23
2022-07-26T18:21:06.686Z,1.31
2022-07-26T18:26:13.294Z,1.27
2022-07-26T18:31:19.487Z,1.37
2022-07-26T18:36:25.753Z,1.08
2022-07-26T18:41:31.937Z,1.04
2022-07-26T18:46:37.864Z,1.12
2022-07-26T18:51:43.911Z,1.24
2022-07-26T18:56:50.306Z,1.14
2022-07-26T19:01:56.409Z,1.39
2022-07-26T19:07:02.589Z,1.25
2022-07-26T19:12:08.698Z,1.13
2022-07-26T19:17:15.109Z,1.38
2022-07-26T19:22:21.186Z,1.11
2022-07-26T19:27:27.459Z,1.08
2022-07-26T19:32:33.811Z,1.08
2022-07-26T19:37:40.028Z,1.35
2022-07-26T19:42:46.115Z,1.03
2022-07-26T19:47:52.346Z,1.35
2022-07-26T19:52:58.464Z,1.06
2022-07-26T19:58:04.708Z,1.46
2022-07-26T20:03:11.581Z,1.15
2022-07-26T20:08:16.782Z,1.01
2022-07-26T20:13:23.018Z,0.91
2022-07-26T20:18:29.438Z,1.07
2022-07-26T20:23:35.575Z,1.21
2022-07-26T20:28:41.823Z,1.18
2022-07-26T20:33:48.003Z,1.10
2022-07-26T20:38:54.251Z,1.04
2022-07-26T20:44:00.365Z,1.15
2022-07-26T20:49:07.029Z,1.16
2022-07-26T20:54:13.169Z,1.08
2022-07-26T20:59:20.345Z,1.05
2022-07-26T21:04:26.458Z,1.15
2022-07-26T21:09:32.851Z,1.29
2022-07-26T21:14:39.099Z,1.23
2022-07-26T21:19:45.399Z,1.27
2022-07-26T21:24:51.682Z,1.24
2022-07-26T21:29:57.983Z,1.21
2022-07-26T21:35:04.265Z,1.11
2022-07-26T21:40:10.494Z,1.27
2022-07-26T21:45:16.609Z,1.25
2022-07-26T21:50:22.878Z,1.16
2022-07-26T21:55:29.002Z,1.37
2022-07-26T22:00:35.259Z,1.23
2022-07-26T22:05:41.749Z,1.05
2022-07-26T22:10:48.073Z,1.18
2022-07-26T22:15:54.171Z,1.09
2022-07-26T22:21:00.811Z,1.31
2022-07-26T22:26:06.962Z,1.19
2022-07-26T22:31:13.349Z,1.63
2022-07-26T22:36:19.394Z,1.22
2022-07-26T22:41:25.753Z,1.40
2022-07-26T22:46:31.542Z,1.26
2022-07-26T22:51:37.714Z,1.50
2022-07-26T22:56:43.781Z,1.38
2022-07-26T23:01:50.054Z,1.30
2022-07-26T23:06:56.161Z,1.35
2022-07-26T23:12:01.870Z,1.32
2022-07-26T23:17:08.113Z,1.34
2022-07-26T23:22:14.763Z,1.39
2022-07-26T23:27:20.295Z,2.02
2022-07-26T23:32:25.781Z,1.36
2022-07-26T23:37:31.900Z,1.29
2022-07-26T23:42:38.143Z,1.45
2022-07-26T23:47:44.257Z,1.29
2022-07-26T23:52:50.541Z,1.47
2022-07-26T23:57:56.845Z,1.31
